Lindenhurst, Illinois
Current Conditions -  °F | °C
As of 8:35 AM on Friday 28 Nov 2014 (Local Time) from KUGN Reporting Station
Light Snow Light Snow  
Wind Chill:   Ceiling: 10000
Heat Index: 19°   Visibility: 4mi
Dew Point: 15°   Wind: 10mph
Humidity: 85%   Direction: 170°S
Pressure: 30.23"   Gusts: NA
Location:  42.4132°N, 88.0615°W
Report Text: KUGN 281435Z 17009KT 4SM -SN BR SCT045 SCT075 OVC100 M07/M09 A3023 RMK AO2 P0000 T10721094
Loading
Personal Weather Stations






























Interactive Weather Map New forecast layout! Learn more

10-Day Weather Forecast

Advertisements
Track Severe Weather on mobile